Home > Products > Valid Products > TAF

000
FTUS42 KMFL 032328
TAFMIA
TAF
KMIA 032328Z 0400/0424 10007KT P6SM SCT035 SCT100 BKN210
     FM040200 11006KT P6SM FEW025
     FM041500 13010KT P6SM VCTS SCT025CB BKN050=



000
FTUS42 KMFL 032328
TAFAPF
TAF
KAPF 032328Z 0400/0424 16006KT 6SM -RA FEW070 BKN110
     FM040015 VRB03KT P6SM FEW035
     FM041400 15008KT P6SM SCT035=



000
FTUS42 KMFL 032328
TAFPBI
TAF
KPBI 032328Z 0400/0424 12012KT P6SM SCT023 SCT150 BKN250
     FM040300 12004KT P6SM FEW025
     FM041500 13010KT P6SM VCTS SCT035CB BKN050=



000
FTUS42 KMFL 032328
TAFFLL
TAF
KFLL 032328Z 0400/0424 10012KT P6SM FEW023 SCT030 SCT060
     FM040200 12006KT P6SM FEW025
     FM041500 13011KT P6SM VCTS SCT035CB BKN050=



000
FTUS42 KMFL 032328
TAFFLL
TAF
KFLL 032328Z 0400/0424 10012KT P6SM FEW023 SCT030 SCT060
     FM040200 12006KT P6SM FEW025
     FM041500 13011KT P6SM VCTS SCT035CB BKN050=



000
FTUS42 KMFL 032328
TAFMIA
TAF
KMIA 032328Z 0400/0424 10007KT P6SM SCT035 SCT100 BKN210
     FM040200 11006KT P6SM FEW025
     FM041500 13010KT P6SM VCTS SCT025CB BKN050=



000
FTUS42 KMFL 032328
TAFPBI
TAF
KPBI 032328Z 0400/0424 12012KT P6SM SCT023 SCT150 BKN250
     FM040300 12004KT P6SM FEW025
     FM041500 13010KT P6SM VCTS SCT035CB BKN050=



000
FTUS42 KMFL 032328
TAFAPF
TAF
KAPF 032328Z 0400/0424 16006KT 6SM -RA FEW070 BKN110
     FM040015 VRB03KT P6SM FEW035
     FM041400 15008KT P6SM SCT035=



000
FTUS42 KMFL 032217 AAC
TAFMIA
TAF AMD
KMIA 032217Z 0322/0418 09017G28KT 4SM TSRA FEW025 BKN035CB
     FM032300 30010KT P6SM VCTS SCT035CB BKN050
     FM040200 11006KT P6SM FEW025
     FM041500 13010KT P6SM VCTS SCT025CB BKN050=



000
FTUS42 KMFL 032217 AAC
TAFMIA
TAF AMD
KMIA 032217Z 0322/0418 09017G28KT 4SM TSRA FEW025 BKN035CB
     FM032300 30010KT P6SM VCTS SCT035CB BKN050
     FM040200 11006KT P6SM FEW025
     FM041500 13010KT P6SM VCTS SCT025CB BKN050=



000
FTUS42 KMFL 032202 AAB
TAFAPF
TAF AMD
KAPF 032202Z 0322/0418 06026G30KT 1SM +TSRA FEW014 BKN030CB
     FM032300 08005KT P6SM VCTS SCT025CB
     FM040200 VRB03KT P6SM FEW035
     FM041400 15008KT P6SM SCT035=



000
FTUS42 KMFL 032152 AAB
TAFMIA
TAF AMD
KMIA 032152Z 0322/0418 30013G22KT 2SM TSRA BKN035CB
     FM032300 30010KT P6SM VCTS SCT035CB BKN050
     FM040200 11006KT P6SM FEW025
     FM041500 13010KT P6SM VCTS SCT025CB BKN050=



000
FTUS42 KMFL 032152 AAB
TAFMIA
TAF AMD
KMIA 032152Z 0322/0418 30013G22KT 2SM TSRA BKN035CB
     FM032300 30010KT P6SM VCTS SCT035CB BKN050
     FM040200 11006KT P6SM FEW025
     FM041500 13010KT P6SM VCTS SCT025CB BKN050=



000
FTUS42 KMFL 032152 AAB
TAFMIA
TAF AMD
KMIA 032152Z 0322/0418 30013G22KT 2SM TSRA BKN035CB
     FM032300 30010KT P6SM VCTS SCT035CB BKN050
     FM040200 11006KT P6SM FEW025
     FM041500 13010KT P6SM VCTS SCT025CB BKN050=



000
FTUS42 KMFL 032152 AAB
TAFMIA
TAF AMD
KMIA 032152Z 0322/0418 30013G22KT 2SM TSRA BKN035CB
     FM032300 30010KT P6SM VCTS SCT035CB BKN050
     FM040200 11006KT P6SM FEW025
     FM041500 13010KT P6SM VCTS SCT025CB BKN050=



000
FTUS42 KMFL 032107 AAA
TAFPBI
TAF AMD
KPBI 032107Z 0321/0418 12012KT P6SM SCT023 SCT150 BKN250
     FM040300 12004KT P6SM FEW025
     FM041500 13010KT P6SM VCTS SCT035CB BKN050=



000
FTUS42 KMFL 032107 AAA
TAFPBI
TAF AMD
KPBI 032107Z 0321/0418 12012KT P6SM SCT023 SCT150 BKN250
     FM040300 12004KT P6SM FEW025
     FM041500 13010KT P6SM VCTS SCT035CB BKN050=



000
FTUS42 KMFL 032106 AAA
TAFAPF
TAF AMD
KAPF 032106Z 0321/0418 23008KT P6SM VCTS SCT035CB BKN050
      TEMPO 0321/0323 VRB10G20KT 3SM +TSRA BKN030CB
     FM040200 VRB03KT P6SM FEW035
     FM041400 15008KT P6SM SCT035=



000
FTUS42 KMFL 032106 AAA
TAFAPF
TAF AMD
KAPF 032106Z 0321/0418 23008KT P6SM VCTS SCT035CB BKN050
      TEMPO 0321/0323 VRB10G20KT 3SM +TSRA BKN030CB
     FM040200 VRB03KT P6SM FEW035
     FM041400 15008KT P6SM SCT035=



000
FTUS42 KMFL 032052 AAA
TAFFLL
TAF AMD
KFLL 032052Z 0321/0418 11012KT P6SM SCT027 BKN250
     FM032115 28010KT P6SM VCTS SCT035CB BKN050
     FM040100 12006KT P6SM FEW025
     FM041500 13011KT P6SM VCTS SCT035CB BKN050=



000
FTUS42 KMFL 032052 AAA
TAFFLL
TAF AMD
KFLL 032052Z 0321/0418 11012KT P6SM SCT027 BKN250
     FM032115 28010KT P6SM VCTS SCT035CB BKN050
     FM040100 12006KT P6SM FEW025
     FM041500 13011KT P6SM VCTS SCT035CB BKN050=



000
FTUS42 KMFL 032050 AAA
TAFMIA
TAF AMD
KMIA 032050Z 0321/0418 11010KT P6SM SCT035 BKN250
     FM032115 30010KT P6SM VCTS SCT035CB BKN050
     FM040200 11006KT P6SM FEW025
     FM041500 13010KT P6SM VCTS SCT025CB BKN050=



000
FTUS42 KMFL 032050 AAA
TAFMIA
TAF AMD
KMIA 032050Z 0321/0418 11010KT P6SM SCT035 BKN250
     FM032115 30010KT P6SM VCTS SCT035CB BKN050
     FM040200 11006KT P6SM FEW025
     FM041500 13010KT P6SM VCTS SCT025CB BKN050=



000
FTUS42 KMFL 032050 AAA
TAFMIA
TAF AMD
KMIA 032050Z 0321/0418 11010KT P6SM SCT035 BKN250
     FM032115 30010KT P6SM VCTS SCT035CB BKN050
     FM040200 11006KT P6SM FEW025
     FM041500 13010KT P6SM VCTS SCT025CB BKN050=



000
FTUS42 KMFL 031731
TAFAPF
TAF
KAPF 031731Z 0318/0418 VRB06KT P6SM SCT035
     FM032000 27008KT P6SM VCTS SCT035CB BKN050
     FM040200 VRB03KT P6SM FEW035
     FM041400 15008KT P6SM SCT035=



000
FTUS42 KMFL 031731
TAFPBI
TAF
KPBI 031731Z 0318/0418 10012KT P6SM SCT030 SCT035 SCT200
     FM040300 12004KT P6SM FEW025
     FM041500 13010KT P6SM VCTS SCT035CB BKN050=



000
FTUS42 KMFL 031731
TAFMIA
TAF
KMIA 031731Z 0318/0418 11010KT P6SM SCT035
     FM040300 11004KT P6SM FEW025
     FM041500 13010KT P6SM VCTS SCT025CB BKN050=



000
FTUS42 KMFL 031731
TAFMIA
TAF
KMIA 031731Z 0318/0418 11010KT P6SM SCT035
     FM040300 11004KT P6SM FEW025
     FM041500 13010KT P6SM VCTS SCT025CB BKN050=



000
FTUS42 KMFL 031731
TAFFLL
TAF
KFLL 031731Z 0318/0418 12012KT P6SM SCT035 SCT250
     FM040300 12005KT P6SM FEW025
     FM041500 13011KT P6SM VCTS SCT035CB BKN050=



000
FTUS42 KMFL 031731
TAFPBI
TAF
KPBI 031731Z 0318/0418 10012KT P6SM SCT030 SCT035 SCT200
     FM040300 12004KT P6SM FEW025
     FM041500 13010KT P6SM VCTS SCT035CB BKN050=



000
FTUS42 KMFL 031731
TAFAPF
TAF
KAPF 031731Z 0318/0418 VRB06KT P6SM SCT035
     FM032000 27008KT P6SM VCTS SCT035CB BKN050
     FM040200 VRB03KT P6SM FEW035
     FM041400 15008KT P6SM SCT035=



000
FTUS42 KMFL 031731
TAFAPF
TAF
KAPF 031731Z 0318/0418 VRB06KT P6SM SCT035
     FM032000 27008KT P6SM VCTS SCT035CB BKN050
     FM040200 VRB03KT P6SM FEW035
     FM041400 15008KT P6SM SCT035=



000
FTUS42 KMFL 031731
TAFMIA
TAF
KMIA 031731Z 0318/0418 11010KT P6SM SCT035
     FM040300 11004KT P6SM FEW025
     FM041500 13010KT P6SM VCTS SCT025CB BKN050=



000
FTUS42 KMFL 031731
TAFFLL
TAF
KFLL 031731Z 0318/0418 12012KT P6SM SCT035 SCT250
     FM040300 12005KT P6SM FEW025
     FM041500 13011KT P6SM VCTS SCT035CB BKN050=



000
FTUS42 KMFL 031731
TAFMIA
TAF
KMIA 031731Z 0318/0418 11010KT P6SM SCT035
     FM040300 11004KT P6SM FEW025
     FM041500 13010KT P6SM VCTS SCT025CB BKN050=



000
FTUS42 KMFL 031731
TAFFLL
TAF
KFLL 031731Z 0318/0418 12012KT P6SM SCT035 SCT250
     FM040300 12005KT P6SM FEW025
     FM041500 13011KT P6SM VCTS SCT035CB BKN050=



000
FTUS42 KMFL 031731
TAFPBI
TAF
KPBI 031731Z 0318/0418 10012KT P6SM SCT030 SCT035 SCT200
     FM040300 12004KT P6SM FEW025
     FM041500 13010KT P6SM VCTS SCT035CB BKN050=



000
FTUS42 KMFL 031731
TAFFLL
TAF
KFLL 031731Z 0318/0418 12012KT P6SM SCT035 SCT250
     FM040300 12005KT P6SM FEW025
     FM041500 13011KT P6SM VCTS SCT035CB BKN050=



000
FTUS42 KMFL 031731
TAFPBI
TAF
KPBI 031731Z 0318/0418 10012KT P6SM SCT030 SCT035 SCT200
     FM040300 12004KT P6SM FEW025
     FM041500 13010KT P6SM VCTS SCT035CB BKN050=



000
FTUS42 KMFL 031731
TAFAPF
TAF
KAPF 031731Z 0318/0418 VRB06KT P6SM SCT035
     FM032000 27008KT P6SM VCTS SCT035CB BKN050
     FM040200 VRB03KT P6SM FEW035
     FM041400 15008KT P6SM SCT035=



000
FTUS42 KMFL 031501 AAA
TAFPBI
TAF AMD
KPBI 031501Z 0315/0412 13011KT P6SM SCT035
     FM040000 12004KT P6SM FEW025=



000
FTUS42 KMFL 031501 AAA
TAFFLL
TAF AMD
KFLL 031501Z 0315/0412 12012KT P6SM SCT035
     FM040000 12005KT P6SM FEW025=



000
FTUS42 KMFL 031501 AAA
TAFPBI
TAF AMD
KPBI 031501Z 0315/0412 13011KT P6SM SCT035
     FM040000 12004KT P6SM FEW025=



000
FTUS42 KMFL 031501 AAA
TAFFLL
TAF AMD
KFLL 031501Z 0315/0412 12012KT P6SM SCT035
     FM040000 12005KT P6SM FEW025=



000
FTUS42 KMFL 031501 AAA
TAFMIA
TAF AMD
KMIA 031501Z 0315/0412 11010KT P6SM SCT035
     FM040000 11004KT P6SM FEW025=



000
FTUS42 KMFL 031501 AAA
TAFAPF
TAF AMD
KAPF 031501Z 0315/0412 11005KT P6SM FEW035
     FM031800 27008KT P6SM VCTS SCT035CB BKN050
     FM040100 VRB03KT P6SM FEW035=



000
FTUS42 KMFL 031501 AAA
TAFAPF
TAF AMD
KAPF 031501Z 0315/0412 11005KT P6SM FEW035
     FM031800 27008KT P6SM VCTS SCT035CB BKN050
     FM040100 VRB03KT P6SM FEW035=



000
FTUS42 KMFL 031501 AAA
TAFMIA
TAF AMD
KMIA 031501Z 0315/0412 11010KT P6SM SCT035
     FM040000 11004KT P6SM FEW025=



000
FTUS42 KMFL 031151 CCA
TAFFLL
TAF COR
KFLL 031151Z 0312/0412 VRB05KT P6SM VCSH SCT025 SCT040 SCT200
     FM031500 12012KT P6SM SCT035
     FM040000 12005KT P6SM FEW025=



000
FTUS42 KMFL 031151 CCA
TAFFLL
TAF COR
KFLL 031151Z 0312/0412 VRB05KT P6SM VCSH SCT025 SCT040 SCT200
     FM031500 12012KT P6SM SCT035
     FM040000 12005KT P6SM FEW025=



000
FTUS42 KMFL 031151 CCA
TAFMIA
TAF COR
KMIA 031151Z 0312/0412 VRB05KT P6SM VCSH SCT025 BKN250
     FM031500 11010KT P6SM SCT035
     FM040000 11004KT P6SM FEW025=



000
FTUS42 KMFL 031151 CCA
TAFMIA
TAF COR
KMIA 031151Z 0312/0412 VRB05KT P6SM VCSH SCT025 BKN250
     FM031500 11010KT P6SM SCT035
     FM040000 11004KT P6SM FEW025=



000
FTUS42 KMFL 031151 CCA
TAFPBI
TAF COR
KPBI 031151Z 0312/0412 VRB05KT P6SM VCSH SCT025 SCT250
     FM031500 13011KT P6SM SCT035
     FM040000 12004KT P6SM FEW025=



000
FTUS42 KMFL 031151 CCA
TAFPBI
TAF COR
KPBI 031151Z 0312/0412 VRB05KT P6SM VCSH SCT025 SCT250
     FM031500 13011KT P6SM SCT035
     FM040000 12004KT P6SM FEW025=



000
FTUS42 KMFL 031125
TAFAPF
TAF
KAPF 031125Z 0312/0412 11005KT P6SM FEW035
     FM031800 27008KT P6SM VCTS SCT035CB BKN050
     FM040100 VRB03KT P6SM FEW035=



000
FTUS42 KMFL 031125
TAFFLL
TAF
KFLL 031125Z 0312/0412 12007KT P6SM VCTS SCT025CB BKN050
     FM031500 12012KT P6SM SCT035
     FM040000 12005KT P6SM SKC=



000
FTUS42 KMFL 031125
TAFPBI
TAF
KPBI 031125Z 0312/0412 13005KT P6SM VCTS SCT025CB BKN050
     FM031500 13011KT P6SM SCT035
     FM040000 12004KT P6SM SKC=



000
FTUS42 KMFL 031125
TAFMIA
TAF
KMIA 031125Z 0312/0412 11004KT P6SM VCTS SCT025CB BKN040
     FM031500 11010KT P6SM SCT035
     FM040000 11004KT P6SM SKC=



000
FTUS42 KMFL 031125
TAFPBI
TAF
KPBI 031125Z 0312/0412 13005KT P6SM VCTS SCT025CB BKN050
     FM031500 13011KT P6SM SCT035
     FM040000 12004KT P6SM SKC=



000
FTUS42 KMFL 031125
TAFMIA
TAF
KMIA 031125Z 0312/0412 11004KT P6SM VCTS SCT025CB BKN040
     FM031500 11010KT P6SM SCT035
     FM040000 11004KT P6SM SKC=



000
FTUS42 KMFL 031125
TAFPBI
TAF
KPBI 031125Z 0312/0412 13005KT P6SM VCTS SCT025CB BKN050
     FM031500 13011KT P6SM SCT035
     FM040000 12004KT P6SM SKC=



000
FTUS42 KMFL 031125
TAFFLL
TAF
KFLL 031125Z 0312/0412 12007KT P6SM VCTS SCT025CB BKN050
     FM031500 12012KT P6SM SCT035
     FM040000 12005KT P6SM SKC=



000
FTUS42 KMFL 031125
TAFMIA
TAF
KMIA 031125Z 0312/0412 11004KT P6SM VCTS SCT025CB BKN040
     FM031500 11010KT P6SM SCT035
     FM040000 11004KT P6SM SKC=



000
FTUS42 KMFL 031125
TAFAPF
TAF
KAPF 031125Z 0312/0412 11005KT P6SM FEW035
     FM031800 27008KT P6SM VCTS SCT035CB BKN050
     FM040100 VRB03KT P6SM FEW035=



000
FTUS42 KMFL 031125
TAFPBI
TAF
KPBI 031125Z 0312/0412 13005KT P6SM VCTS SCT025CB BKN050
     FM031500 13011KT P6SM SCT035
     FM040000 12004KT P6SM SKC=



000
FTUS42 KMFL 031125
TAFMIA
TAF
KMIA 031125Z 0312/0412 11004KT P6SM VCTS SCT025CB BKN040
     FM031500 11010KT P6SM SCT035
     FM040000 11004KT P6SM SKC=



000
FTUS42 KMFL 031112 AAB
TAFMIA
TAF AMD
KMIA 031112Z 0311/0406 11004KT P6SM VCTS SCT025CB BKN040
      TEMPO 0311/0312 3SM SHRA BKN025
     FM031500 11010KT P6SM SCT035
     FM040000 11004KT P6SM SKC=



000
FTUS42 KMFL 031112 AAB
TAFMIA
TAF AMD
KMIA 031112Z 0311/0406 11004KT P6SM VCTS SCT025CB BKN040
      TEMPO 0311/0312 3SM SHRA BKN025
     FM031500 11010KT P6SM SCT035
     FM040000 11004KT P6SM SKC=



000
FTUS42 KMFL 031112 AAB
TAFMIA
TAF AMD
KMIA 031112Z 0311/0406 11004KT P6SM VCTS SCT025CB BKN040
      TEMPO 0311/0312 3SM SHRA BKN025
     FM031500 11010KT P6SM SCT035
     FM040000 11004KT P6SM SKC=



000
FTUS42 KMFL 031112 AAB
TAFMIA
TAF AMD
KMIA 031112Z 0311/0406 11004KT P6SM VCTS SCT025CB BKN040
      TEMPO 0311/0312 3SM SHRA BKN025
     FM031500 11010KT P6SM SCT035
     FM040000 11004KT P6SM SKC=



000
FTUS42 KMFL 030832 AAA
TAFAPF
TAF AMD
KAPF 030832Z 0309/0406 11005KT P6SM FEW035
     FM031800 22008KT P6SM VCTS SCT035CB
     FM040100 00000KT P6SM FEW035=



000
FTUS42 KMFL 030832 AAA
TAFAPF
TAF AMD
KAPF 030832Z 0309/0406 11005KT P6SM FEW035
     FM031800 22008KT P6SM VCTS SCT035CB
     FM040100 00000KT P6SM FEW035=



000
FTUS42 KMFL 030832 AAA
TAFMIA
TAF AMD
KMIA 030832Z 0309/0406 11004KT P6SM SCT150
     FM031500 11010KT P6SM SCT035
     FM040000 11004KT P6SM SKC=



000
FTUS42 KMFL 030832 AAA
TAFPBI
TAF AMD
KPBI 030832Z 0309/0406 13005KT P6SM SCT150
     FM031500 13011KT P6SM SCT035
     FM040000 12004KT P6SM SKC=



000
FTUS42 KMFL 030832 AAA
TAFMIA
TAF AMD
KMIA 030832Z 0309/0406 11004KT P6SM SCT150
     FM031500 11010KT P6SM SCT035
     FM040000 11004KT P6SM SKC=



000
FTUS42 KMFL 030832 AAA
TAFFLL
TAF AMD
KFLL 030832Z 0309/0406 12007KT P6SM FEW200
     FM031500 12012KT P6SM SCT035
     FM040000 12005KT P6SM SKC=



000
FTUS42 KMFL 030832 AAA
TAFFLL
TAF AMD
KFLL 030832Z 0309/0406 12007KT P6SM FEW200
     FM031500 12012KT P6SM SCT035
     FM040000 12005KT P6SM SKC=



000
FTUS42 KMFL 030832 AAA
TAFPBI
TAF AMD
KPBI 030832Z 0309/0406 13005KT P6SM SCT150
     FM031500 13011KT P6SM SCT035
     FM040000 12004KT P6SM SKC=



000
FTUS42 KMFL 030832 AAA
TAFAPF
TAF AMD
KAPF 030832Z 0309/0406 11005KT P6SM FEW035
     FM031800 22008KT P6SM VCTS SCT035CB
     FM040100 00000KT P6SM FEW035=



000
FTUS42 KMFL 030832 AAA
TAFAPF
TAF AMD
KAPF 030832Z 0309/0406 11005KT P6SM FEW035
     FM031800 22008KT P6SM VCTS SCT035CB
     FM040100 00000KT P6SM FEW035=



000
FTUS42 KMFL 030832 AAA
TAFMIA
TAF AMD
KMIA 030832Z 0309/0406 11004KT P6SM SCT150
     FM031500 11010KT P6SM SCT035
     FM040000 11004KT P6SM SKC=



000
FTUS42 KMFL 030832 AAA
TAFFLL
TAF AMD
KFLL 030832Z 0309/0406 12007KT P6SM FEW200
     FM031500 12012KT P6SM SCT035
     FM040000 12005KT P6SM SKC=



000
FTUS42 KMFL 030832 AAA
TAFFLL
TAF AMD
KFLL 030832Z 0309/0406 12007KT P6SM FEW200
     FM031500 12012KT P6SM SCT035
     FM040000 12005KT P6SM SKC=



000
FTUS42 KMFL 030832 AAA
TAFPBI
TAF AMD
KPBI 030832Z 0309/0406 13005KT P6SM SCT150
     FM031500 13011KT P6SM SCT035
     FM040000 12004KT P6SM SKC=



000
FTUS42 KMFL 030832 AAA
TAFMIA
TAF AMD
KMIA 030832Z 0309/0406 11004KT P6SM SCT150
     FM031500 11010KT P6SM SCT035
     FM040000 11004KT P6SM SKC=



000
FTUS42 KMFL 030832 AAA
TAFPBI
TAF AMD
KPBI 030832Z 0309/0406 13005KT P6SM SCT150
     FM031500 13011KT P6SM SCT035
     FM040000 12004KT P6SM SKC=



000
FTUS42 KMFL 030520
TAFMIA
TAF
KMIA 030520Z 0306/0406 10005KT P6SM FEW150
     FM031500 11010KT P6SM SCT035
     FM040000 11004KT P6SM SKC=



000
FTUS42 KMFL 030520
TAFPBI
TAF
KPBI 030520Z 0306/0406 13006KT P6SM SCT200
     FM031500 13011KT P6SM SCT035
     FM040000 12004KT P6SM SKC=



000
FTUS42 KMFL 030520
TAFPBI
TAF
KPBI 030520Z 0306/0406 13006KT P6SM SCT200
     FM031500 13011KT P6SM SCT035
     FM040000 12004KT P6SM SKC=



000
FTUS42 KMFL 030520
TAFPBI
TAF
KPBI 030520Z 0306/0406 13006KT P6SM SCT200
     FM031500 13011KT P6SM SCT035
     FM040000 12004KT P6SM SKC=



000
FTUS42 KMFL 030520
TAFMIA
TAF
KMIA 030520Z 0306/0406 10005KT P6SM FEW150
     FM031500 11010KT P6SM SCT035
     FM040000 11004KT P6SM SKC=



000
FTUS42 KMFL 030520
TAFAPF
TAF
KAPF 030520Z 0306/0406 10004KT P6SM FEW200
     FM031500 12005KT P6SM FEW035
     FM031800 22008KT P6SM VCTS SCT035CB
     FM040100 00000KT P6SM FEW035=



000
FTUS42 KMFL 030520
TAFFLL
TAF
KFLL 030520Z 0306/0406 12006KT P6SM SCT200
     FM031500 12011KT P6SM SCT035
     FM040000 12005KT P6SM SKC=



000
FTUS42 KMFL 030520
TAFMIA
TAF
KMIA 030520Z 0306/0406 10005KT P6SM FEW150
     FM031500 11010KT P6SM SCT035
     FM040000 11004KT P6SM SKC=



000
FTUS42 KMFL 030520
TAFFLL
TAF
KFLL 030520Z 0306/0406 12006KT P6SM SCT200
     FM031500 12011KT P6SM SCT035
     FM040000 12005KT P6SM SKC=



000
FTUS42 KMFL 030520
TAFFLL
TAF
KFLL 030520Z 0306/0406 12006KT P6SM SCT200
     FM031500 12011KT P6SM SCT035
     FM040000 12005KT P6SM SKC=



000
FTUS42 KMFL 030313 AAA
TAFMIA
TAF AMD
KMIA 030313Z 0303/0324 11009KT P6SM SCT250
     FM030600 11004KT P6SM FEW025
     FM031500 11010KT P6SM SCT035=



000
FTUS42 KMFL 030313 AAA
TAFPBI
TAF AMD
KPBI 030313Z 0303/0324 13004KT P6SM FEW150
     FM031500 13010KT P6SM SCT035=



000
FTUS42 KMFL 030313 AAA
TAFPBI
TAF AMD
KPBI 030313Z 0303/0324 13004KT P6SM FEW150
     FM031500 13010KT P6SM SCT035=



000
FTUS42 KMFL 030313 AAA
TAFAPF
TAF AMD
KAPF 030313Z 0303/0324 13005KT P6SM SCT200
     FM031500 13006KT P6SM FEW035
     FM031700 22008KT P6SM VCTS SCT035CB=



000
FTUS42 KMFL 030313 AAA
TAFAPF
TAF AMD
KAPF 030313Z 0303/0324 13005KT P6SM SCT200
     FM031500 13006KT P6SM FEW035
     FM031700 22008KT P6SM VCTS SCT035CB=



000
FTUS42 KMFL 030313 AAA
TAFMIA
TAF AMD
KMIA 030313Z 0303/0324 11009KT P6SM SCT250
     FM030600 11004KT P6SM FEW025
     FM031500 11010KT P6SM SCT035=



000
FTUS42 KMFL 030313 AAA
TAFFLL
TAF AMD
KFLL 030313Z 0303/0324 11010KT P6SM FEW250
     FM030600 12005KT P6SM FEW025
     FM031500 12010KT P6SM SCT035=



000
FTUS42 KMFL 030313 AAA
TAFFLL
TAF AMD
KFLL 030313Z 0303/0324 11010KT P6SM FEW250
     FM030600 12005KT P6SM FEW025
     FM031500 12010KT P6SM SCT035=



000
FTUS42 KMFL 030313 AAA
TAFMIA
TAF AMD
KMIA 030313Z 0303/0324 11009KT P6SM SCT250
     FM030600 11004KT P6SM FEW025
     FM031500 11010KT P6SM SCT035=



000
FTUS42 KMFL 030313 AAA
TAFPBI
TAF AMD
KPBI 030313Z 0303/0324 13004KT P6SM FEW150
     FM031500 13010KT P6SM SCT035=



000
FTUS42 KMFL 030313 AAA
TAFPBI
TAF AMD
KPBI 030313Z 0303/0324 13004KT P6SM FEW150
     FM031500 13010KT P6SM SCT035=



000
FTUS42 KMFL 030313 AAA
TAFAPF
TAF AMD
KAPF 030313Z 0303/0324 13005KT P6SM SCT200
     FM031500 13006KT P6SM FEW035
     FM031700 22008KT P6SM VCTS SCT035CB=



000
FTUS42 KMFL 030313 AAA
TAFFLL
TAF AMD
KFLL 030313Z 0303/0324 11010KT P6SM FEW250
     FM030600 12005KT P6SM FEW025
     FM031500 12010KT P6SM SCT035=



000
FTUS42 KMFL 030313 AAA
TAFFLL
TAF AMD
KFLL 030313Z 0303/0324 11010KT P6SM FEW250
     FM030600 12005KT P6SM FEW025
     FM031500 12010KT P6SM SCT035=



000
FTUS42 KMFL 022320
TAFAPF
TAF
KAPF 022320Z 0300/0324 35008KT P6SM VCTS SCT030CB
     FM030200 VRB03KT P6SM SCT250
     FM031500 13006KT P6SM FEW035
     FM031700 22008KT P6SM VCTS SCT035CB=



000
FTUS42 KMFL 022320
TAFAPF
TAF
KAPF 022320Z 0300/0324 35008KT P6SM VCTS SCT030CB
     FM030200 VRB03KT P6SM SCT250
     FM031500 13006KT P6SM FEW035
     FM031700 22008KT P6SM VCTS SCT035CB=



000
FTUS42 KMFL 022320
TAFPBI
TAF
KPBI 022320Z 0300/0324 11010KT P6SM FEW025 SCT150 SCT250
     FM030200 14005KT P6SM FEW025
     FM031500 13010KT P6SM SCT035=



000
FTUS42 KMFL 022320
TAFPBI
TAF
KPBI 022320Z 0300/0324 11010KT P6SM FEW025 SCT150 SCT250
     FM030200 14005KT P6SM FEW025
     FM031500 13010KT P6SM SCT035=



000
FTUS42 KMFL 022320
TAFFLL
TAF
KFLL 022320Z 0300/0324 10011KT P6SM FEW030 SCT250
     FM030600 12005KT P6SM FEW025
     FM031500 12010KT P6SM SCT035=



000
FTUS42 KMFL 022320
TAFFLL
TAF
KFLL 022320Z 0300/0324 10011KT P6SM FEW030 SCT250
     FM030600 12005KT P6SM FEW025
     FM031500 12010KT P6SM SCT035=



000
FTUS42 KMFL 022320
TAFMIA
TAF
KMIA 022320Z 0300/0324 12010KT P6SM FEW035 SCT250
     FM030600 11004KT P6SM FEW025
     FM031500 11010KT P6SM SCT035=



000
FTUS42 KMFL 022320
TAFMIA
TAF
KMIA 022320Z 0300/0324 12010KT P6SM FEW035 SCT250
     FM030600 11004KT P6SM FEW025
     FM031500 11010KT P6SM SCT035=



000
FTUS42 KMFL 022103 AAA
TAFPBI
TAF AMD
KPBI 022103Z 0221/0318 13012KT P6SM SCT025 SCT150 SCT250
     FM030000 14005KT P6SM FEW025
     FM031500 13010KT P6SM SCT035=



000
FTUS42 KMFL 022103 AAA
TAFPBI
TAF AMD
KPBI 022103Z 0221/0318 13012KT P6SM SCT025 SCT150 SCT250
     FM030000 14005KT P6SM FEW025
     FM031500 13010KT P6SM SCT035=



000
FTUS42 KMFL 022103 AAA
TAFFLL
TAF AMD
KFLL 022103Z 0221/0318 12013KT P6SM FEW030 SCT250
     FM030600 12005KT P6SM FEW025
     FM031500 12010KT P6SM SCT035=



000
FTUS42 KMFL 022103 AAB
TAFAPF
TAF AMD
KAPF 022103Z 0221/0318 08005KT P6SM VCTS SCT035CB BKN070 OVC250
      TEMPO 0221/0222 3SM TSRA BKN040CB OVC070
     FM022200 VRB03KT P6SM VCTS SCT030CB
     FM030200 VRB03KT P6SM SCT250
     FM031500 13006KT P6SM FEW035=



000
FTUS42 KMFL 022103 AAB
TAFAPF
TAF AMD
KAPF 022103Z 0221/0318 08005KT P6SM VCTS SCT035CB BKN070 OVC250
      TEMPO 0221/0222 3SM TSRA BKN040CB OVC070
     FM022200 VRB03KT P6SM VCTS SCT030CB
     FM030200 VRB03KT P6SM SCT250
     FM031500 13006KT P6SM FEW035=



000
FTUS42 KMFL 022103 AAA
TAFMIA
TAF AMD
KMIA 022103Z 0221/0318 14010KT P6SM FEW035 SCT250
     FM030600 11004KT P6SM FEW025
     FM031500 11010KT P6SM SCT035=



000
FTUS42 KMFL 022103 AAA
TAFFLL
TAF AMD
KFLL 022103Z 0221/0318 12013KT P6SM FEW030 SCT250
     FM030600 12005KT P6SM FEW025
     FM031500 12010KT P6SM SCT035=



000
FTUS42 KMFL 022103 AAA
TAFMIA
TAF AMD
KMIA 022103Z 0221/0318 14010KT P6SM FEW035 SCT250
     FM030600 11004KT P6SM FEW025
     FM031500 11010KT P6SM SCT035=



000
FTUS42 KMFL 022032 AAA
TAFAPF
TAF AMD
KAPF 022032Z 0221/0318 12010G20KT 3SM +TSRA BKN030CB
     FM022200 10005KT P6SM VCTS SCT030CB
     FM030200 VRB03KT P6SM SCT250
     FM031500 13006KT P6SM FEW035=



000
FTUS42 KMFL 022032 AAA
TAFAPF
TAF AMD
KAPF 022032Z 0221/0318 12010G20KT 3SM +TSRA BKN030CB
     FM022200 10005KT P6SM VCTS SCT030CB
     FM030200 VRB03KT P6SM SCT250
     FM031500 13006KT P6SM FEW035=



000
FTUS42 KMFL 021726
TAFPBI
TAF
KPBI 021726Z 0218/0318 13010KT P6SM SCT035 BKN250
     FM030000 14005KT P6SM FEW025
     FM031500 13010KT P6SM SCT035=



000
FTUS42 KMFL 021726
TAFFLL
TAF
KFLL 021726Z 0218/0318 12010KT P6SM SCT035
     FM030600 12005KT P6SM FEW025
     FM031500 12010KT P6SM SCT035=



000
FTUS42 KMFL 021726
TAFMIA
TAF
KMIA 021726Z 0218/0318 11010KT P6SM SCT035
     FM030600 11004KT P6SM FEW025
     FM031500 11010KT P6SM SCT035=



000
FTUS42 KMFL 021726
TAFFLL
TAF
KFLL 021726Z 0218/0318 12010KT P6SM SCT035
     FM030600 12005KT P6SM FEW025
     FM031500 12010KT P6SM SCT035=



000
FTUS42 KMFL 021726
TAFPBI
TAF
KPBI 021726Z 0218/0318 13010KT P6SM SCT035 BKN250
     FM030000 14005KT P6SM FEW025
     FM031500 13010KT P6SM SCT035=



000
FTUS42 KMFL 021726
TAFAPF
TAF
KAPF 021726Z 0218/0318 22008KT P6SM VCSH SCT035
     FM022000 23009KT P6SM VCTS SCT035CB BKN050
     FM030200 VRB03KT P6SM SCT250
     FM031500 13006KT P6SM FEW035=



000
FTUS42 KMFL 021726
TAFMIA
TAF
KMIA 021726Z 0218/0318 11010KT P6SM SCT035
     FM030600 11004KT P6SM FEW025
     FM031500 11010KT P6SM SCT035=



000
FTUS42 KMFL 021726
TAFAPF
TAF
KAPF 021726Z 0218/0318 22008KT P6SM VCSH SCT035
     FM022000 23009KT P6SM VCTS SCT035CB BKN050
     FM030200 VRB03KT P6SM SCT250
     FM031500 13006KT P6SM FEW035=



000
FTUS42 KMFL 021726
TAFPBI
TAF
KPBI 021726Z 0218/0318 13010KT P6SM SCT035 BKN250
     FM030000 14005KT P6SM FEW025
     FM031500 13010KT P6SM SCT035=



000
FTUS42 KMFL 021726
TAFMIA
TAF
KMIA 021726Z 0218/0318 11010KT P6SM SCT035
     FM030600 11004KT P6SM FEW025
     FM031500 11010KT P6SM SCT035=



000
FTUS42 KMFL 021726
TAFMIA
TAF
KMIA 021726Z 0218/0318 11010KT P6SM SCT035
     FM030600 11004KT P6SM FEW025
     FM031500 11010KT P6SM SCT035=



000
FTUS42 KMFL 021726
TAFAPF
TAF
KAPF 021726Z 0218/0318 22008KT P6SM VCSH SCT035
     FM022000 23009KT P6SM VCTS SCT035CB BKN050
     FM030200 VRB03KT P6SM SCT250
     FM031500 13006KT P6SM FEW035=



000
FTUS42 KMFL 021726
TAFFLL
TAF
KFLL 021726Z 0218/0318 12010KT P6SM SCT035
     FM030600 12005KT P6SM FEW025
     FM031500 12010KT P6SM SCT035=



000
FTUS42 KMFL 021726
TAFPBI
TAF
KPBI 021726Z 0218/0318 13010KT P6SM SCT035 BKN250
     FM030000 14005KT P6SM FEW025
     FM031500 13010KT P6SM SCT035=



000
FTUS42 KMFL 021726
TAFAPF
TAF
KAPF 021726Z 0218/0318 22008KT P6SM VCSH SCT035
     FM022000 23009KT P6SM VCTS SCT035CB BKN050
     FM030200 VRB03KT P6SM SCT250
     FM031500 13006KT P6SM FEW035=



000
FTUS42 KMFL 021726
TAFFLL
TAF
KFLL 021726Z 0218/0318 12010KT P6SM SCT035
     FM030600 12005KT P6SM FEW025
     FM031500 12010KT P6SM SCT035=



000
FTUS42 KMFL 021458 AAB
TAFMIA
TAF AMD
KMIA 021458Z 0215/0312 11010KT P6SM SCT035 SCT250
     FM030000 11007KT P6SM FEW025=



000
FTUS42 KMFL 021458 AAA
TAFAPF
TAF AMD
KAPF 021458Z 0215/0312 14007KT P6SM SCT020 SCT040
     FM021900 21009KT P6SM VCTS SCT035CB BKN050
     FM030100 VRB03KT P6SM SCT250=



000
FTUS42 KMFL 021458 AAD
TAFPBI
TAF AMD
KPBI 021458Z 0215/0312 VRB05KT P6SM VCSH BKN027 BKN040 BKN110
     FM021600 13008KT P6SM SCT025 SCT050
     FM030000 14005KT P6SM FEW025=



000
FTUS42 KMFL 021458 AAA
TAFAPF
TAF AMD
KAPF 021458Z 0215/0312 14007KT P6SM SCT020 SCT040
     FM021900 21009KT P6SM VCTS SCT035CB BKN050
     FM030100 VRB03KT P6SM SCT250=



000
FTUS42 KMFL 021458 AAB
TAFMIA
TAF AMD
KMIA 021458Z 0215/0312 11010KT P6SM SCT035 SCT250
     FM030000 11007KT P6SM FEW025=



000
FTUS42 KMFL 021458 AAA
TAFFLL
TAF AMD
KFLL 021458Z 0215/0312 12012KT P6SM SCT035
     FM030000 12007KT P6SM FEW025=



000
FTUS42 KMFL 021458 AAA
TAFFLL
TAF AMD
KFLL 021458Z 0215/0312 12012KT P6SM SCT035
     FM030000 12007KT P6SM FEW025=



000
FTUS42 KMFL 021458 AAD
TAFPBI
TAF AMD
KPBI 021458Z 0215/0312 VRB05KT P6SM VCSH BKN027 BKN040 BKN110
     FM021600 13008KT P6SM SCT025 SCT050
     FM030000 14005KT P6SM FEW025=



000
FTUS42 KMFL 021414 AAC
TAFPBI
TAF AMD
KPBI 021414Z 0214/0312 13010KT P6SM SCT025 BKN035
      TEMPO 0214/0215 VRB10KT TS BKN025CB
     FM030000 14005KT P6SM FEW025=



000
FTUS42 KMFL 021414 AAC
TAFPBI
TAF AMD
KPBI 021414Z 0214/0312 13010KT P6SM SCT025 BKN035
      TEMPO 0214/0215 VRB10KT TS BKN025CB
     FM030000 14005KT P6SM FEW025=



000
FTUS42 KMFL 021248 AAB
TAFPBI
TAF AMD
KPBI 021248Z 0213/0312 13005KT P6SM VCTS SCT022CB BKN050
      TEMPO 0213/0214 13010G20KT 5SM -TSRA BKN025CB
     FM021400 13010KT P6SM SCT035
     FM030000 14005KT P6SM FEW025=



000
FTUS42 KMFL 021248 AAB
TAFPBI
TAF AMD
KPBI 021248Z 0213/0312 13005KT P6SM VCTS SCT022CB BKN050
      TEMPO 0213/0214 13010G20KT 5SM -TSRA BKN025CB
     FM021400 13010KT P6SM SCT035
     FM030000 14005KT P6SM FEW025=



000
FTUS42 KMFL 021248 AAB
TAFPBI
TAF AMD
KPBI 021248Z 0213/0312 13005KT P6SM VCTS SCT022CB BKN050
      TEMPO 0213/0214 13010G20KT 5SM -TSRA BKN025CB
     FM021400 13010KT P6SM SCT035
     FM030000 14005KT P6SM FEW025=



000
FTUS42 KMFL 021248 AAB
TAFPBI
TAF AMD
KPBI 021248Z 0213/0312 13005KT P6SM VCTS SCT022CB BKN050
      TEMPO 0213/0214 13010G20KT 5SM -TSRA BKN025CB
     FM021400 13010KT P6SM SCT035
     FM030000 14005KT P6SM FEW025=



000
FTUS42 KMFL 021222 AAA
TAFPBI
TAF AMD
KPBI 021222Z 0212/0312 15005KT P6SM VCSH SCT022 SCT035 SCT250
     FM021400 13010KT P6SM SCT035
     FM030000 14005KT P6SM FEW025=



000
FTUS42 KMFL 021222 AAA
TAFMIA
TAF AMD
KMIA 021222Z 0212/0312 11006KT P6SM VCTS SCT025CB SCT250
     FM021400 11010KT P6SM SCT035
     FM030000 11007KT P6SM FEW025=



000
FTUS42 KMFL 021124
TAFFLL
TAF
KFLL 021124Z 0212/0312 13010KT P6SM VCSH SCT025 SCT040
     FM021400 12012KT P6SM SCT035
     FM030000 12007KT P6SM FEW025=



000
FTUS42 KMFL 021124
TAFPBI
TAF
KPBI 021124Z 0212/0312 15005KT P6SM SCT021 SCT250
     FM021400 13010KT P6SM SCT035
     FM030000 14005KT P6SM FEW025=



000
FTUS42 KMFL 021124
TAFMIA
TAF
KMIA 021124Z 0212/0312 11006KT P6SM SCT025 SCT250
     FM021400 11010KT P6SM SCT035
     FM030000 11007KT P6SM FEW025=



000
FTUS42 KMFL 021124
TAFFLL
TAF
KFLL 021124Z 0212/0312 13010KT P6SM VCSH SCT025 SCT040
     FM021400 12012KT P6SM SCT035
     FM030000 12007KT P6SM FEW025=



000
FTUS42 KMFL 021124
TAFPBI
TAF
KPBI 021124Z 0212/0312 15005KT P6SM SCT021 SCT250
     FM021400 13010KT P6SM SCT035
     FM030000 14005KT P6SM FEW025=



000
FTUS42 KMFL 021124
TAFAPF
TAF
KAPF 021124Z 0212/0312 VRB04KT P6SM FEW040
     FM021400 14007KT P6SM FEW040
     FM021900 21009KT P6SM VCTS SCT035CB BKN050
     FM030100 VRB03KT P6SM SCT250=



000
FTUS42 KMFL 021124
TAFMIA
TAF
KMIA 021124Z 0212/0312 11006KT P6SM SCT025 SCT250
     FM021400 11010KT P6SM SCT035
     FM030000 11007KT P6SM FEW025=



000
FTUS42 KMFL 021124
TAFAPF
TAF
KAPF 021124Z 0212/0312 VRB04KT P6SM FEW040
     FM021400 14007KT P6SM FEW040
     FM021900 21009KT P6SM VCTS SCT035CB BKN050
     FM030100 VRB03KT P6SM SCT250=



000
FTUS42 KMFL 020901 AAA
TAFAPF
TAF AMD
KAPF 020901Z 0209/0306 05005KT P6SM SKC
     FM021400 14006KT P6SM FEW025
     FM021800 21009KT P6SM VCSH SCT035 BKN050
     FM030100 VRB03KT P6SM FEW030 SCT120=



000
FTUS42 KMFL 020901 AAA
TAFFLL
TAF AMD
KFLL 020901Z 0209/0306 13010KT P6SM FEW025
     FM021400 12012KT P6SM SCT035
     FM030000 12008KT P6SM FEW025=



000
FTUS42 KMFL 020901 AAA
TAFFLL
TAF AMD
KFLL 020901Z 0209/0306 13010KT P6SM FEW025
     FM021400 12012KT P6SM SCT035
     FM030000 12008KT P6SM FEW025=



000
FTUS42 KMFL 020901 AAA
TAFMIA
TAF AMD
KMIA 020901Z 0209/0306 11006KT P6SM FEW025 SCT250
     FM021400 11010KT P6SM SCT035
     FM030000 11007KT P6SM FEW025=



000
FTUS42 KMFL 020901 AAA
TAFAPF
TAF AMD
KAPF 020901Z 0209/0306 05005KT P6SM SKC
     FM021400 14006KT P6SM FEW025
     FM021800 21009KT P6SM VCSH SCT035 BKN050
     FM030100 VRB03KT P6SM FEW030 SCT120=



000
FTUS42 KMFL 020901 AAA
TAFPBI
TAF AMD
KPBI 020901Z 0209/0306 15005KT P6SM FEW022 SCT250
     FM021400 13010KT P6SM SCT035
     FM030000 14005KT P6SM FEW025=



000
FTUS42 KMFL 020901 AAA
TAFMIA
TAF AMD
KMIA 020901Z 0209/0306 11006KT P6SM FEW025 SCT250
     FM021400 11010KT P6SM SCT035
     FM030000 11007KT P6SM FEW025=



000
FTUS42 KMFL 020901 AAA
TAFPBI
TAF AMD
KPBI 020901Z 0209/0306 15005KT P6SM FEW022 SCT250
     FM021400 13010KT P6SM SCT035
     FM030000 14005KT P6SM FEW025=



000
FTUS42 KMFL 020901 AAA
TAFMIA
TAF AMD
KMIA 020901Z 0209/0306 11006KT P6SM FEW025 SCT250
     FM021400 11010KT P6SM SCT035
     FM030000 11007KT P6SM FEW025=



000
FTUS42 KMFL 020901 AAA
TAFFLL
TAF AMD
KFLL 020901Z 0209/0306 13010KT P6SM FEW025
     FM021400 12012KT P6SM SCT035
     FM030000 12008KT P6SM FEW025=



000
FTUS42 KMFL 020901 AAA
TAFMIA
TAF AMD
KMIA 020901Z 0209/0306 11006KT P6SM FEW025 SCT250
     FM021400 11010KT P6SM SCT035
     FM030000 11007KT P6SM FEW025=



000
FTUS42 KMFL 020901 AAA
TAFFLL
TAF AMD
KFLL 020901Z 0209/0306 13010KT P6SM FEW025
     FM021400 12012KT P6SM SCT035
     FM030000 12008KT P6SM FEW025=



000
FTUS42 KMFL 020520
TAFAPF
TAF
KAPF 020520Z 0206/0306 09005KT P6SM FEW025
     FM021400 14006KT P6SM FEW025
     FM021800 21009KT P6SM VCSH SCT035 BKN050
     FM030100 VRB03KT P6SM FEW030 SCT120=



000
FTUS42 KMFL 020520
TAFMIA
TAF
KMIA 020520Z 0206/0306 09008KT P6SM FEW025
     FM021400 11010KT P6SM SCT035
     FM030000 11007KT P6SM FEW025=



000
FTUS42 KMFL 020520
TAFFLL
TAF
KFLL 020520Z 0206/0306 11008KT P6SM FEW025
     FM021400 12011KT P6SM SCT035
     FM030000 12008KT P6SM FEW025=



000
FTUS42 KMFL 020520
TAFMIA
TAF
KMIA 020520Z 0206/0306 09008KT P6SM FEW025
     FM021400 11010KT P6SM SCT035
     FM030000 11007KT P6SM FEW025=



000
FTUS42 KMFL 020520
TAFAPF
TAF
KAPF 020520Z 0206/0306 09005KT P6SM FEW025
     FM021400 14006KT P6SM FEW025
     FM021800 21009KT P6SM VCSH SCT035 BKN050
     FM030100 VRB03KT P6SM FEW030 SCT120=



000
FTUS42 KMFL 020520
TAFFLL
TAF
KFLL 020520Z 0206/0306 11008KT P6SM FEW025
     FM021400 12011KT P6SM SCT035
     FM030000 12008KT P6SM FEW025=



000
FTUS42 KMFL 020520
TAFPBI
TAF
KPBI 020520Z 0206/0306 13006KT P6SM FEW025
     FM021400 13010KT P6SM SCT035
     FM030000 14005KT P6SM FEW025=



000
FTUS42 KMFL 020520
TAFPBI
TAF
KPBI 020520Z 0206/0306 13006KT P6SM FEW025
     FM021400 13010KT P6SM SCT035
     FM030000 14005KT P6SM FEW025=



000
FTUS42 KMFL 020520
TAFFLL
TAF
KFLL 020520Z 0206/0306 11008KT P6SM FEW025
     FM021400 12011KT P6SM SCT035
     FM030000 12008KT P6SM FEW025=



000
FTUS42 KMFL 012328
TAFFLL
TAF
KFLL 012328Z 0200/0224 14010KT P6SM FEW030 SCT250
     FM020500 VRB04KT P6SM FEW025
     FM021400 12011KT P6SM SCT035=



000
FTUS42 KMFL 012328
TAFMIA
TAF
KMIA 012328Z 0200/0224 10010KT P6SM SCT035 SCT250
     FM020100 VRB03KT P6SM FEW025
     FM021400 12010KT P6SM SCT035=



000
FTUS42 KMFL 012328
TAFPBI
TAF
KPBI 012328Z 0200/0224 13009KT P6SM FEW030 SCT160 BKN210
     FM020100 VRB03KT P6SM SCT250
     FM021400 12010KT P6SM SCT035=



000
FTUS42 KMFL 012328
TAFPBI
TAF
KPBI 012328Z 0200/0224 13009KT P6SM FEW030 SCT160 BKN210
     FM020100 VRB03KT P6SM SCT250
     FM021400 12010KT P6SM SCT035=



000
FTUS42 KMFL 012328
TAFMIA
TAF
KMIA 012328Z 0200/0224 10010KT P6SM SCT035 SCT250
     FM020100 VRB03KT P6SM FEW025
     FM021400 12010KT P6SM SCT035=



000
FTUS42 KMFL 012328
TAFAPF
TAF
KAPF 012328Z 0200/0224 02007KT 6SM -TSRA FEW025CB BKN100
     FM020100 VRB03KT P6SM SCT250
     FM021400 14006KT P6SM SCT035
     FM021800 21009KT P6SM VCTS SCT035CB=



000
FTUS42 KMFL 012328
TAFFLL
TAF
KFLL 012328Z 0200/0224 14010KT P6SM FEW030 SCT250
     FM020500 VRB04KT P6SM FEW025
     FM021400 12011KT P6SM SCT035=



000
FTUS42 KMFL 012328
TAFAPF
TAF
KAPF 012328Z 0200/0224 02007KT 6SM -TSRA FEW025CB BKN100
     FM020100 VRB03KT P6SM SCT250
     FM021400 14006KT P6SM SCT035
     FM021800 21009KT P6SM VCTS SCT035CB=



000
FTUS42 KMFL 012104 AAA
TAFMIA
TAF AMD
KMIA 012104Z 0121/0218 10010KT P6SM SCT045 SCT250
     FM020100 VRB03KT P6SM FEW025
     FM021400 12008KT P6SM SCT035=



000
FTUS42 KMFL 012104 AAA
TAFFLL
TAF AMD
KFLL 012104Z 0121/0218 09010KT P6SM FEW030 FEW250
     FM020500 VRB04KT P6SM FEW025
     FM021400 12008KT P6SM SCT035=



000
FTUS42 KMFL 012104 AAB
TAFAPF
TAF AMD
KAPF 012104Z 0121/0218 22004KT P6SM VCTS FEW060CB BKN250
      TEMPO 0121/0123 VRB20G35KT 2SM +TSRA OVC030CB
     FM020100 VRB03KT P6SM SCT250
     FM021400 14006KT P6SM SCT035=



000
FTUS42 KMFL 012104 AAB
TAFPBI
TAF AMD
KPBI 012104Z 0121/0218 VRB06KT P6SM SCT025 SCT045 BKN250
     FM020100 VRB03KT P6SM SCT250
     FM021400 13008KT P6SM SCT035=



000
FTUS42 KMFL 012104 AAA
TAFFLL
TAF AMD
KFLL 012104Z 0121/0218 09010KT P6SM FEW030 FEW250
     FM020500 VRB04KT P6SM FEW025
     FM021400 12008KT P6SM SCT035=



000
FTUS42 KMFL 012104 AAA
TAFMIA
TAF AMD
KMIA 012104Z 0121/0218 10010KT P6SM SCT045 SCT250
     FM020100 VRB03KT P6SM FEW025
     FM021400 12008KT P6SM SCT035=



000
FTUS42 KMFL 012104 AAB
TAFAPF
TAF AMD
KAPF 012104Z 0121/0218 22004KT P6SM VCTS FEW060CB BKN250
      TEMPO 0121/0123 VRB20G35KT 2SM +TSRA OVC030CB
     FM020100 VRB03KT P6SM SCT250
     FM021400 14006KT P6SM SCT035=



000
FTUS42 KMFL 012104 AAB
TAFPBI
TAF AMD
KPBI 012104Z 0121/0218 VRB06KT P6SM SCT025 SCT045 BKN250
     FM020100 VRB03KT P6SM SCT250
     FM021400 13008KT P6SM SCT035=



000
FTUS42 KMFL 012104 AAB
TAFAPF
TAF AMD
KAPF 012104Z 0121/0218 22004KT P6SM VCTS FEW060CB BKN250
      TEMPO 0121/0123 VRB20G35KT 2SM +TSRA OVC030CB
     FM020100 VRB03KT P6SM SCT250
     FM021400 14006KT P6SM SCT035=



000
FTUS42 KMFL 012104 AAB
TAFPBI
TAF AMD
KPBI 012104Z 0121/0218 VRB06KT P6SM SCT025 SCT045 BKN250
     FM020100 VRB03KT P6SM SCT250
     FM021400 13008KT P6SM SCT035=



000
FTUS42 KMFL 012104 AAA
TAFMIA
TAF AMD
KMIA 012104Z 0121/0218 10010KT P6SM SCT045 SCT250
     FM020100 VRB03KT P6SM FEW025
     FM021400 12008KT P6SM SCT035=



000
FTUS42 KMFL 012104 AAA
TAFFLL
TAF AMD
KFLL 012104Z 0121/0218 09010KT P6SM FEW030 FEW250
     FM020500 VRB04KT P6SM FEW025
     FM021400 12008KT P6SM SCT035=



000
FTUS42 KMFL 011924 AAA
TAFAPF
TAF AMD
KAPF 011924Z 0119/0218 24009KT P6SM VCTS SCT035CB BKN050
      TEMPO 0120/0123 VRB20G35KT 2SM +TSRA OVC030CB
     FM020100 VRB03KT P6SM SCT250
     FM021400 14006KT P6SM SCT035=



000
FTUS42 KMFL 011924 AAA
TAFAPF
TAF AMD
KAPF 011924Z 0119/0218 24009KT P6SM VCTS SCT035CB BKN050
      TEMPO 0120/0123 VRB20G35KT 2SM +TSRA OVC030CB
     FM020100 VRB03KT P6SM SCT250
     FM021400 14006KT P6SM SCT035=



000
FTUS42 KMFL 011924 AAA
TAFAPF
TAF AMD
KAPF 011924Z 0119/0218 24009KT P6SM VCTS SCT035CB BKN050
      TEMPO 0120/0123 VRB20G35KT 2SM +TSRA OVC030CB
     FM020100 VRB03KT P6SM SCT250
     FM021400 14006KT P6SM SCT035=



000
FTUS42 KMFL 011804 AAA
TAFPBI
TAF AMD
KPBI 011804Z 0118/0218 14010KT P6SM VCSH SCT025 SCT045 BKN200
     FM020100 VRB03KT P6SM SCT250
     FM021400 13008KT P6SM SCT035=



000
FTUS42 KMFL 011804 AAA
TAFPBI
TAF AMD
KPBI 011804Z 0118/0218 14010KT P6SM VCSH SCT025 SCT045 BKN200
     FM020100 VRB03KT P6SM SCT250
     FM021400 13008KT P6SM SCT035=



000
FTUS42 KMFL 011804 AAA
TAFPBI
TAF AMD
KPBI 011804Z 0118/0218 14010KT P6SM VCSH SCT025 SCT045 BKN200
     FM020100 VRB03KT P6SM SCT250
     FM021400 13008KT P6SM SCT035=



000
FTUS42 KMFL 011804 AAA
TAFPBI
TAF AMD
KPBI 011804Z 0118/0218 14010KT P6SM VCSH SCT025 SCT045 BKN200
     FM020100 VRB03KT P6SM SCT250
     FM021400 13008KT P6SM SCT035=



000
FTUS42 KMFL 011720
TAFMIA
TAF
KMIA 011720Z 0118/0218 12010KT P6SM SCT035 BKN200
     FM020100 VRB03KT P6SM FEW025
     FM021400 12008KT P6SM SCT035=



000
FTUS42 KMFL 011720
TAFFLL
TAF
KFLL 011720Z 0118/0218 13010KT P6SM SCT025 BKN200
     FM020500 VRB04KT P6SM FEW025
     FM021400 12008KT P6SM SCT035=



000
FTUS42 KMFL 011720
TAFPBI
TAF
KPBI 011720Z 0118/0218 14010KT P6SM SCT035 BKN200
     FM020100 VRB03KT P6SM SCT250
     FM021400 13008KT P6SM SCT035=



000
FTUS42 KMFL 011720
TAFMIA
TAF
KMIA 011720Z 0118/0218 12010KT P6SM SCT035 BKN200
     FM020100 VRB03KT P6SM FEW025
     FM021400 12008KT P6SM SCT035=



000
FTUS42 KMFL 011720
TAFFLL
TAF
KFLL 011720Z 0118/0218 13010KT P6SM SCT025 BKN200
     FM020500 VRB04KT P6SM FEW025
     FM021400 12008KT P6SM SCT035=



000
FTUS42 KMFL 011720
TAFPBI
TAF
KPBI 011720Z 0118/0218 14010KT P6SM SCT035 BKN200
     FM020100 VRB03KT P6SM SCT250
     FM021400 13008KT P6SM SCT035=



000
FTUS42 KMFL 011720
TAFFLL
TAF
KFLL 011720Z 0118/0218 13010KT P6SM SCT025 BKN200
     FM020500 VRB04KT P6SM FEW025
     FM021400 12008KT P6SM SCT035=



000
FTUS42 KMFL 011720
TAFAPF
TAF
KAPF 011720Z 0118/0218 VRB05KT P6SM BKN050
     FM012000 25008KT P6SM SCT045 SCT060
     FM020100 VRB03KT P6SM SCT250
     FM021400 14006KT P6SM SCT035=



000
FTUS42 KMFL 011720
TAFMIA
TAF
KMIA 011720Z 0118/0218 12010KT P6SM SCT035 BKN200
     FM020100 VRB03KT P6SM FEW025
     FM021400 12008KT P6SM SCT035=



000
FTUS42 KMFL 011720
TAFPBI
TAF
KPBI 011720Z 0118/0218 14010KT P6SM SCT035 BKN200
     FM020100 VRB03KT P6SM SCT250
     FM021400 13008KT P6SM SCT035=



000
FTUS42 KMFL 011720
TAFAPF
TAF
KAPF 011720Z 0118/0218 VRB05KT P6SM BKN050
     FM012000 25008KT P6SM SCT045 SCT060
     FM020100 VRB03KT P6SM SCT250
     FM021400 14006KT P6SM SCT035=



000
FTUS42 KMFL 011720
TAFMIA
TAF
KMIA 011720Z 0118/0218 12010KT P6SM SCT035 BKN200
     FM020100 VRB03KT P6SM FEW025
     FM021400 12008KT P6SM SCT035=



000
FTUS42 KMFL 011720
TAFAPF
TAF
KAPF 011720Z 0118/0218 VRB05KT P6SM BKN050
     FM012000 25008KT P6SM SCT045 SCT060
     FM020100 VRB03KT P6SM SCT250
     FM021400 14006KT P6SM SCT035=



000
FTUS42 KMFL 011720
TAFAPF
TAF
KAPF 011720Z 0118/0218 VRB05KT P6SM BKN050
     FM012000 25008KT P6SM SCT045 SCT060
     FM020100 VRB03KT P6SM SCT250
     FM021400 14006KT P6SM SCT035=



000
FTUS42 KMFL 011720
TAFFLL
TAF
KFLL 011720Z 0118/0218 13010KT P6SM SCT025 BKN200
     FM020500 VRB04KT P6SM FEW025
     FM021400 12008KT P6SM SCT035=



000
FTUS42 KMFL 011426 AAA
TAFFLL
TAF AMD
KFLL 011426Z 0114/0212 09010KT P6SM SCT025 SCT150 BKN250
     FM020000 VRB04KT P6SM FEW025=



000
FTUS42 KMFL 011426 AAA
TAFPBI
TAF AMD
KPBI 011426Z 0114/0212 14010KT P6SM SCT035 BKN150
     FM020000 VRB03KT P6SM SCT250=



000
FTUS42 KMFL 011426 AAA
TAFAPF
TAF AMD
KAPF 011426Z 0114/0212 11008KT P6SM SCT250
     FM011700 24008KT P6SM VCSH SCT030 SCT060
     FM020000 VRB03KT P6SM FEW025 SCT250=



000
FTUS42 KMFL 011426 AAA
TAFFLL
TAF AMD
KFLL 011426Z 0114/0212 09010KT P6SM SCT025 SCT150 BKN250
     FM020000 VRB04KT P6SM FEW025=



000
FTUS42 KMFL 011426 AAA
TAFMIA
TAF AMD
KMIA 011426Z 0114/0212 09008KT P6SM SCT035 SCT150 BKN250
     FM020000 VRB03KT P6SM FEW025=



000
FTUS42 KMFL 011426 AAA
TAFAPF
TAF AMD
KAPF 011426Z 0114/0212 11008KT P6SM SCT250
     FM011700 24008KT P6SM VCSH SCT030 SCT060
     FM020000 VRB03KT P6SM FEW025 SCT250=



000
FTUS42 KMFL 011426 AAA
TAFMIA
TAF AMD
KMIA 011426Z 0114/0212 09008KT P6SM SCT035 SCT150 BKN250
     FM020000 VRB03KT P6SM FEW025=



000
FTUS42 KMFL 011426 AAA
TAFPBI
TAF AMD
KPBI 011426Z 0114/0212 14010KT P6SM SCT035 BKN150
     FM020000 VRB03KT P6SM SCT250=



000
FTUS42 KMFL 011155
TAFPBI
TAF
KPBI 011155Z 0112/0212 VRB03KT P6SM SCT110 SCT250
     FM011600 13010KT P6SM SCT035
     FM020000 VRB03KT P6SM SCT250=



000
FTUS42 KMFL 011155
TAFFLL
TAF
KFLL 011155Z 0112/0212 VRB05KT P6SM SCT025 SCT100 BKN250
     FM011400 12010KT P6SM SCT035
     FM020000 VRB04KT P6SM FEW025=



000
FTUS42 KMFL 011155
TAFPBI
TAF
KPBI 011155Z 0112/0212 VRB03KT P6SM SCT110 SCT250
     FM011600 13010KT P6SM SCT035
     FM020000 VRB03KT P6SM SCT250=



000
FTUS42 KMFL 011155
TAFFLL
TAF
KFLL 011155Z 0112/0212 VRB05KT P6SM SCT025 SCT100 BKN250
     FM011400 12010KT P6SM SCT035
     FM020000 VRB04KT P6SM FEW025=



000
FTUS42 KMFL 011155
TAFAPF
TAF
KAPF 011155Z 0112/0212 12005KT P6SM SKC
     FM011700 24008KT P6SM VCSH SCT030 SCT060
     FM020000 VRB03KT P6SM FEW025 SCT250=



000
FTUS42 KMFL 011155
TAFMIA
TAF
KMIA 011155Z 0112/0212 VRB03KT P6SM BKN250
     FM011400 12010KT P6SM SCT035
     FM020000 VRB03KT P6SM FEW025=



000
FTUS42 KMFL 011155
TAFMIA
TAF
KMIA 011155Z 0112/0212 VRB03KT P6SM BKN250
     FM011400 12010KT P6SM SCT035
     FM020000 VRB03KT P6SM FEW025=



000
FTUS42 KMFL 011155
TAFAPF
TAF
KAPF 011155Z 0112/0212 12005KT P6SM SKC
     FM011700 24008KT P6SM VCSH SCT030 SCT060
     FM020000 VRB03KT P6SM FEW025 SCT250=



000
FTUS42 KMFL 011155
TAFMIA
TAF
KMIA 011155Z 0112/0212 VRB03KT P6SM BKN250
     FM011400 12010KT P6SM SCT035
     FM020000 VRB03KT P6SM FEW025=



000
FTUS42 KMFL 011155
TAFAPF
TAF
KAPF 011155Z 0112/0212 12005KT P6SM SKC
     FM011700 24008KT P6SM VCSH SCT030 SCT060
     FM020000 VRB03KT P6SM FEW025 SCT250=



000
FTUS42 KMFL 011155
TAFPBI
TAF
KPBI 011155Z 0112/0212 VRB03KT P6SM SCT110 SCT250
     FM011600 13010KT P6SM SCT035
     FM020000 VRB03KT P6SM SCT250=



000
FTUS42 KMFL 011155
TAFFLL
TAF
KFLL 011155Z 0112/0212 VRB05KT P6SM SCT025 SCT100 BKN250
     FM011400 12010KT P6SM SCT035
     FM020000 VRB04KT P6SM FEW025=



000
FTUS42 KMFL 010859 AAA
TAFFLL
TAF AMD
KFLL 010859Z 0109/0206 14005KT P6SM SKC
     FM011400 12010KT P6SM SCT035
     FM020000 VRB05KT P6SM FEW025=



000
FTUS42 KMFL 010859 AAA
TAFPBI
TAF AMD
KPBI 010859Z 0109/0206 VRB03KT P6SM FEW025 SCT110 SCT250
     FM011400 13009KT P6SM SCT035
     FM020000 VRB03KT P6SM FEW025 SCT250=



000
FTUS42 KMFL 010859 AAA
TAFMIA
TAF AMD
KMIA 010859Z 0109/0206 10003KT P6SM FEW200 SCT300
     FM011400 12010KT P6SM SCT035
     FM020000 VRB03KT P6SM FEW025=



000
FTUS42 KMFL 010859 AAA
TAFPBI
TAF AMD
KPBI 010859Z 0109/0206 VRB03KT P6SM FEW025 SCT110 SCT250
     FM011400 13009KT P6SM SCT035
     FM020000 VRB03KT P6SM FEW025 SCT250=



000
FTUS42 KMFL 010859 AAA
TAFFLL
TAF AMD
KFLL 010859Z 0109/0206 14005KT P6SM SKC
     FM011400 12010KT P6SM SCT035
     FM020000 VRB05KT P6SM FEW025=



000
FTUS42 KMFL 010859 AAA
TAFMIA
TAF AMD
KMIA 010859Z 0109/0206 10003KT P6SM FEW200 SCT300
     FM011400 12010KT P6SM SCT035
     FM020000 VRB03KT P6SM FEW025=



000
FTUS42 KMFL 010859 AAA
TAFAPF
TAF AMD
KAPF 010859Z 0109/0206 13006KT P6SM SKC
     FM011700 24008KT P6SM VCSH SCT030 SCT060
     FM020000 VRB03KT P6SM FEW025 SCT250=



000
FTUS42 KMFL 010523
TAFAPF
TAF
KAPF 010523Z 0106/0206 VRB02KT P6SM FEW025
     FM011700 24008KT P6SM VCSH SCT030 SCT060
     FM020000 VRB03KT P6SM FEW025 SCT250=



000
FTUS42 KMFL 010523
TAFMIA
TAF
KMIA 010523Z 0106/0206 35003KT P6SM FEW025
     FM011400 12010KT P6SM SCT035
     FM020000 VRB03KT P6SM FEW025=



000
FTUS42 KMFL 010523
TAFPBI
TAF
KPBI 010523Z 0106/0206 VRB02KT P6SM VCSH FEW025 SCT120 BKN250
     FM010800 VRB02KT P6SM FEW025 SCT250
     FM011400 13009KT P6SM SCT035
     FM020000 VRB03KT P6SM FEW025 SCT250=



000
FTUS42 KMFL 010523
TAFFLL
TAF
KFLL 010523Z 0106/0206 VRB05KT P6SM FEW025
     FM011400 12010KT P6SM SCT035
     FM020000 VRB05KT P6SM FEW025=



000
FTUS42 KMFL 010523
TAFPBI
TAF
KPBI 010523Z 0106/0206 VRB02KT P6SM VCSH FEW025 SCT120 BKN250
     FM010800 VRB02KT P6SM FEW025 SCT250
     FM011400 13009KT P6SM SCT035
     FM020000 VRB03KT P6SM FEW025 SCT250=



000
FTUS42 KMFL 010523
TAFMIA
TAF
KMIA 010523Z 0106/0206 35003KT P6SM FEW025
     FM011400 12010KT P6SM SCT035
     FM020000 VRB03KT P6SM FEW025=



000
FTUS42 KMFL 010523
TAFAPF
TAF
KAPF 010523Z 0106/0206 VRB02KT P6SM FEW025
     FM011700 24008KT P6SM VCSH SCT030 SCT060
     FM020000 VRB03KT P6SM FEW025 SCT250=



000
FTUS42 KMFL 010523
TAFFLL
TAF
KFLL 010523Z 0106/0206 VRB05KT P6SM FEW025
     FM011400 12010KT P6SM SCT035
     FM020000 VRB05KT P6SM FEW025=



000
FTUS42 KMFL 010523
TAFAPF
TAF
KAPF 010523Z 0106/0206 VRB02KT P6SM FEW025
     FM011700 24008KT P6SM VCSH SCT030 SCT060
     FM020000 VRB03KT P6SM FEW025 SCT250=



000
FTUS42 KMFL 010523
TAFPBI
TAF
KPBI 010523Z 0106/0206 VRB02KT P6SM VCSH FEW025 SCT120 BKN250
     FM010800 VRB02KT P6SM FEW025 SCT250
     FM011400 13009KT P6SM SCT035
     FM020000 VRB03KT P6SM FEW025 SCT250=



000
FTUS42 KMFL 010523
TAFMIA
TAF
KMIA 010523Z 0106/0206 35003KT P6SM FEW025
     FM011400 12010KT P6SM SCT035
     FM020000 VRB03KT P6SM FEW025=



000
FTUS42 KMFL 010523
TAFFLL
TAF
KFLL 010523Z 0106/0206 VRB05KT P6SM FEW025
     FM011400 12010KT P6SM SCT035
     FM020000 VRB05KT P6SM FEW025=



000
FTUS42 KMFL 010344 AAB
TAFFLL
TAF AMD
KFLL 010344Z 0104/0124 16003KT P6SM FEW025 SCT250
      TEMPO 0104/0105 VRB25G35KT
     FM011400 12010KT P6SM SCT035=



000
FTUS42 KMFL 010344 AAB
TAFFLL
TAF AMD
KFLL 010344Z 0104/0124 16003KT P6SM FEW025 SCT250
      TEMPO 0104/0105 VRB25G35KT
     FM011400 12010KT P6SM SCT035=



000
FTUS42 KMFL 010344 AAB
TAFFLL
TAF AMD
KFLL 010344Z 0104/0124 16003KT P6SM FEW025 SCT250
      TEMPO 0104/0105 VRB25G35KT
     FM011400 12010KT P6SM SCT035=



000
FTUS42 KMFL 010304 AAA
TAFFLL
TAF AMD
KFLL 010304Z 0103/0124 16003KT P6SM BKN300
     FM011400 12010KT P6SM SCT035=



000
FTUS42 KMFL 010304 AAA
TAFPBI
TAF AMD
KPBI 010304Z 0103/0124 VRB03KT P6SM VCTS SCT025CB SCT050 BKN250
      TEMPO 0103/0105 VRB15G30KT 3SM +RA SCT015 BKN025 OVC050
     FM010500 VRB03KT P6SM VCSH FEW025 SCT050 BKN120
     FM010700 VRB03KT P6SM FEW025 SCT250
     FM011600 12008KT P6SM SCT035=



000
FTUS42 KMFL 010304 AAA
TAFMIA
TAF AMD
KMIA 010304Z 0103/0124 14004KT P6SM SCT250
     FM011500 13010KT P6SM SCT035=



000
FTUS42 KMFL 010304 AAA
TAFAPF
TAF AMD
KAPF 010304Z 0103/0124 00000KT P6SM SKC
     FM011700 24008KT P6SM SCT045=



000
FTUS42 KMFL 010304 AAA
TAFAPF
TAF AMD
KAPF 010304Z 0103/0124 00000KT P6SM SKC
     FM011700 24008KT P6SM SCT045=



000
FTUS42 KMFL 010304 AAA
TAFPBI
TAF AMD
KPBI 010304Z 0103/0124 VRB03KT P6SM VCTS SCT025CB SCT050 BKN250
      TEMPO 0103/0105 VRB15G30KT 3SM +RA SCT015 BKN025 OVC050
     FM010500 VRB03KT P6SM VCSH FEW025 SCT050 BKN120
     FM010700 VRB03KT P6SM FEW025 SCT250
     FM011600 12008KT P6SM SCT035=



000
FTUS42 KMFL 010304 AAA
TAFFLL
TAF AMD
KFLL 010304Z 0103/0124 16003KT P6SM BKN300
     FM011400 12010KT P6SM SCT035=



000
FTUS42 KMFL 010304 AAA
TAFMIA
TAF AMD
KMIA 010304Z 0103/0124 14004KT P6SM SCT250
     FM011500 13010KT P6SM SCT035=



000
FTUS42 KMFL 010304 AAA
TAFPBI
TAF AMD
KPBI 010304Z 0103/0124 VRB03KT P6SM VCTS SCT025CB SCT050 BKN250
      TEMPO 0103/0105 VRB15G30KT 3SM +RA SCT015 BKN025 OVC050
     FM010500 VRB03KT P6SM VCSH FEW025 SCT050 BKN120
     FM010700 VRB03KT P6SM FEW025 SCT250
     FM011600 12008KT P6SM SCT035=



000
FTUS42 KMFL 010304 AAA
TAFFLL
TAF AMD
KFLL 010304Z 0103/0124 16003KT P6SM BKN300
     FM011400 12010KT P6SM SCT035=



000
FTUS42 KMFL 010304 AAA
TAFMIA
TAF AMD
KMIA 010304Z 0103/0124 14004KT P6SM SCT250
     FM011500 13010KT P6SM SCT035=



000
FTUS42 KMFL 010304 AAA
TAFAPF
TAF AMD
KAPF 010304Z 0103/0124 00000KT P6SM SKC
     FM011700 24008KT P6SM SCT045=



000
FTUS42 KMFL 010304 AAA
TAFFLL
TAF AMD
KFLL 010304Z 0103/0124 16003KT P6SM BKN300
     FM011400 12010KT P6SM SCT035=



000
FTUS42 KMFL 010304 AAA
TAFAPF
TAF AMD
KAPF 010304Z 0103/0124 00000KT P6SM SKC
     FM011700 24008KT P6SM SCT045=



000
FTUS42 KMFL 010304 AAA
TAFMIA
TAF AMD
KMIA 010304Z 0103/0124 14004KT P6SM SCT250
     FM011500 13010KT P6SM SCT035=



    US Dept of Commerce
    National Oceanic and Atmospheric Administration
    National Weather Service
    1325 East West Highway
    Silver Spring, MD 20910
    Page Author: NWS Internet Services Team
Disclaimer
Information Quality
Credits
Glossary
Privacy Policy
Freedom of Information Act (FOIA)
About Us
Career Opportunities